HECA Airport Information

Runway Information
Runway 05C Length 13120 ft width 197 ft
Elevation 382 ft Threshold 0 ft Heading 45
Runway 23C Length 13120 ft Width 197 ft
Elevation 0 ft Threshold 0 ft Heading 225
Runway 05L Length 10830 ft width 197 ft
Elevation 190 ft Threshold 0 ft Heading 49
Runway 23R Length 10830 ft Width 197 ft
Elevation 199 ft Threshold 0 ft Heading 229
Runway 05R Length 13124 ft width 197 ft
Elevation 382 ft Threshold 0 ft Heading 49
Runway 23L Length 13124 ft Width 197 ft
Elevation 375 ft Threshold 0 ft Heading 229
Airport Frequencies
Type APP Name APP Frequency 119.05 MHZ
Type ATIS Name ATIS Frequency 122.6 MHZ
Type GND Name GND Frequency 121.9 MHZ
Type MISC Name VOLMET Frequency 126.2 MHZ
Type PFLT Name PREFLIGHT Frequency 120.1 MHZ
Type rdo Name cairo radi Frequency 11.3 MHZ
Type TWR Name TWR Frequency 118.1 MHZ
Type Volmet Name Frequency 124.6 MHZ
Airport Navaids
Type NDB Name Cairo Frequency 310 KHZ
Type VOR-DME Name Cairo Frequency 112500 KHZ
Type VOR-DME Name Cairo Frequency 115200 KHZ
Type NDB Name Cairo Frequency 317 KHZ
Airport Weather Information & NOTAM
ADDS - METARS form results

(1424 UTC 19 January 2019)
Data provider http://aviationweather.gov/metar/data/
 
METAR text: HECA 191400Z 03010KT 9999 BKN025 18/06 Q1019 NOSIG
Conditions at: HECA (CAIRO INTL AIRPO, EG) observed 1400 UTC 19 January 2019
Temperature: 18.0°C (64°F)
Dewpoint: 6.0°C (43°F) [RH = 45%]
Pressure (altimeter): 30.09 inches Hg (1019.0 mb)
Winds: from the NNE (30 degrees) at 12 MPH (10 knots; 5.1 m/s)
Visibility: 6 or more miles (10+ km)
Ceiling: 2500 feet AGL
Clouds: broken clouds at 2500 feet AGL
Weather: no significant weather observed at this time

METAR text: HECA 191330Z 03011KT 9999 BKN025 18/05 Q1019 NOSIG
Conditions at: HECA (CAIRO INTL AIRPO, EG) observed 1330 UTC 19 January 2019
Temperature: 18.0°C (64°F)
Dewpoint: 5.0°C (41°F) [RH = 42%]
Pressure (altimeter): 30.09 inches Hg (1019.0 mb)
Winds: from the NNE (30 degrees) at 13 MPH (11 knots; 5.7 m/s)
Visibility: 6 or more miles (10+ km)
Ceiling: 2500 feet AGL
Clouds: broken clouds at 2500 feet AGL
Weather: no significant weather observed at this time

Forecast for: HECA (CAIRO INTL AIRPO, EG)
Text: TAF HECA 191100Z 1912/2018 05012KT 9999 SCT025
Forecast period: 1200 UTC 19 January 2019 to 1800 UTC 20 January 2019
Forecast type: FROM: standard forecast or significant change
Winds: from the NE (50 degrees) at 14 MPH (12 knots; 6.2 m/s)
Visibility: 6 or more miles 10+ km)
Ceiling: at least 12,000 feet AGL
Clouds: scattered clouds at 2500 feet AGL
Weather: no significant weather forecast for this period
Text: TEMPO 2000/2007 3000 BR NSC
Forecast period: 0000 to 0700 UTC 20 January 2019
Forecast type: TEMPORARY: The following changes expected for less than half the time period
Visibility: 1.86 miles (2.99 km)
Ceiling: unknown
Clouds: missing
Weather: BR  (mist)